Pierpont, OH (44082)

1:31 PM EST on February 07, 2016 (GMT -0500)
Hilldom rd | | Change Station
CLOSE
Current Station
Personal Weather Station
Location: Pierpont, OH
Elevation: 925 ft
Nearby Weather Stations

Elev 925 ft 41.82 °N, 80.59 °W | Updated 8 minutes ago

Clear
Clear
47.7 °F
Feels Like 46 °F
N
4.7
Wind Variable Wind from South

Today
High -- | Low -- °F
--% Chance of Precip.
Yesterday
High -- | Low -- °F
Precip. -- in
Pressure 29.99 in
Visibility 10.0 miles
Clouds Clear
Windchill 46 °F
Dew Point 28 °F
Humidity 47%
Rainfall 0.00 in
Snow Depth Not available.
7:28 AM 5:44 PM
Waning Crescent, 1% visible
METAR KHZY 071753Z AUTO 18014G20KT 10SM CLR 06/M03 A2997 RMK AO2 SLP155 T00611028 10061 21028 58024 TSNO
Pressure 29.99 in
Visibility 10.0 miles
Clouds Clear
Windchill 46 °F
Dew Point 28 °F
Humidity 47%
Rainfall 0.00 in
Snow Depth Not available.
7:28 AM 5:44 PM
Waning Crescent, 1% visible
METAR KHZY 071753Z AUTO 18014G20KT 10SM CLR 06/M03 A2997 RMK AO2 SLP155 T00611028 10061 21028 58024 TSNO

10-Day Weather Forecast

Almanac

Astronomy

Feb. 07, 2016 Rise Set
Actual Time
Civil Twilight
Nautical Twilight
Astronomical Twilight
Moon
Length of Visible Light
Length of Day
Tomorrow will be .
, % of the Moon is Illuminated

Today's Extremes

State Highs State Lows

Community

WunderPhotos

Upload Photos

1,891,280 photos uploaded!

WunderBlog® & News

Nearby

Air Quality

  Air Quality AQ Index Pollutant
Not available.

Snow Depth

Station Depth Elevation

Earthquake Activity

City Distance Mag. Time & Date
Minimum magnitude displayed is 2.5.

Coastal Water Temperatures

Place Temperature

Stations

Nearby Weather Stations

Station Location Temp. Windchill Dew Point Humidity Wind Precip. Elev Updated Type
                   

Watches & Warnings

There are currently no watches in effect.